Ruby Princess — ZCDY2 — position and weather

sailwx.info

Track history (hours):
 
Tides and Currents Weather Stations Pressure Air Temp Water Temp Dewpoint Dewpoint Depression Visibility Wind Speed Wind Dir Waves Ship Positions

Ruby Princess

Last reported at 2017-Apr-24 03:30 UTC. Time now 2017-Apr-24 03:29 UTC.
Position N 32°06' W 117°17'.

Length 289 m; draft 8.5 m.

Type: Ship. MMSI: 310567000.

Date/timePositionNaut miles runAvg speedWind from/ knotsBaromVisibWave heightAir tempDewpointWater temp
2017-Apr-24 03:30N 32°06' W 117°17'612.7
2017-Apr-24 03:00N 32°02' W 117°10'18 1.3
2017-Apr-23 12:47N 31°54' W 116°52'412.0
2017-Apr-23 12:27N 31°56' W 116°56'817.2
2017-Apr-23 12:00N 32°00' W 117°03'917.1
2017-Apr-23 11:30N 32°04' W 117°12'816.8
2017-Apr-23 11:00N 32°10' W 117°20'816.8
2017-Apr-23 10:30N 32°15' W 117°27'1019.3
2017-Apr-23 10:00N 32°23' W 117°35'1019.5
2017-Apr-23 09:30N 32°30' W 117°42'1019.5
2017-Apr-23 09:00N 32°38' W 117°49'1019.1
2017-Apr-23 08:30N 32°45' W 117°56'1019.0
2017-Apr-23 08:00N 32°52' W 118°03'1019.4
2017-Apr-23 07:30N 32°60' W 118°11'1019.4
2017-Apr-23 07:00N 33°07' W 118°19'1019.5
2017-Apr-23 06:30N 33°13' W 118°28'1019.2
2017-Apr-23 06:00N 33°19' W 118°37'1019.3
2017-Apr-23 05:30N 33°26' W 118°45'1019.5
2017-Apr-23 05:00N 33°34' W 118°51'1019.3
2017-Apr-23 04:30N 33°42' W 118°58'1019.3
2017-Apr-23 04:00N 33°50' W 119°04'1019.9
2017-Apr-23 03:30N 33°58' W 119°11'918.5
2017-Apr-23 03:00N 34°03' W 119°21'1019.4
2017-Apr-23 02:30N 34°06' W 119°32'917.8
2017-Apr-23 02:00N 34°11' W 119°41'181113.0
2017-Apr-23 02:00N 34°00' W 119°24'2448.7 270 / 301013.710.8 15.011.313.1
2017-Apr-23 01:30N 34°19' W 119°41'5 9.4
2017-Apr-23 01:00N 34°24' W 119°41'0 0.3
2017-Apr-23 00:29N 34°24' W 119°41'0 0.0
2017-Apr-22 23:56N 34°24' W 119°41'0 0.0
2017-Apr-22 23:20N 34°24' W 119°41'0 0.0
2017-Apr-22 22:58N 34°24' W 119°41'0 0.0
2017-Apr-22 22:28N 34°24' W 119°41'0 0.0
2017-Apr-22 21:52N 34°24' W 119°41'0 0.0
2017-Apr-22 21:28N 34°24' W 119°41'0 0.1
2017-Apr-22 20:51N 34°24' W 119°41'0 0.0
2017-Apr-22 20:30N 34°24' W 119°41'0 0.1
2017-Apr-22 19:57N 34°24' W 119°41'0 0.1
2017-Apr-22 19:27N 34°24' W 119°41'0 0.1
2017-Apr-22 18:48N 34°24' W 119°41'0 0.0
2017-Apr-22 18:26N 34°24' W 119°41'0 0.0
2017-Apr-22 17:50N 34°24' W 119°41'0 0.0
2017-Apr-22 17:26N 34°24' W 119°41'0 0.0
2017-Apr-22 16:55N 34°24' W 119°41'0 0.0
2017-Apr-22 16:30N 34°24' W 119°41'0 0.0
2017-Apr-22 16:00N 34°24' W 119°41'0 0.0
2017-Apr-22 15:30N 34°24' W 119°41'0 0.0
2017-Apr-22 15:00N 34°24' W 119°41'0 0.0
2017-Apr-22 14:30N 34°24' W 119°41'1 0.7
2017-Apr-22 13:31N 34°23' W 119°41'5 9.8
2017-Apr-22 13:00N 34°18' W 119°41'612.4
2017-Apr-22 12:31N 34°12' W 119°40'611.5
2017-Apr-22 12:00N 34°09' W 119°35'612.4
2017-Apr-22 11:31N 34°07' W 119°27'612.6
2017-Apr-22 11:01N 34°06' W 119°20'712.5
2017-Apr-22 10:28N 34°03' W 119°12'612.4
2017-Apr-22 10:00N 34°00' W 119°07'612.2
2017-Apr-22 09:30N 33°57' W 119°00'611.1
2017-Apr-22 09:00N 33°53' W 118°56'612.1
2017-Apr-22 08:31N 33°47' W 118°56'612.5
2017-Apr-22 08:01N 33°41' W 118°53'612.6
2017-Apr-22 07:31N 33°35' W 118°50'612.2
2017-Apr-22 07:00N 33°29' W 118°49'1158.0
2017-Apr-22 07:00N 33°30' W 118°48'713.1 230 / 71011.710.8 17.0 9.415.0
2017-Apr-22 06:29N 33°23' W 118°47'612.3
2017-Apr-22 06:00N 33°20' W 118°41'612.4
2017-Apr-22 05:30N 33°16' W 118°35'713.0
2017-Apr-22 05:00N 33°12' W 118°29'612.8
2017-Apr-22 04:31N 33°08' W 118°23'612.8
2017-Apr-22 04:00N 33°04' W 118°17'612.8
2017-Apr-22 03:30N 32°60' W 118°12'612.8
2017-Apr-22 03:00N 32°55' W 118°07'613.0
2017-Apr-22 02:31N 32°49' W 118°03'713.1
2017-Apr-22 02:01N 32°44' W 117°59'612.8
2017-Apr-22 01:30N 32°38' W 117°55'612.6
2017-Apr-22 01:01N 32°33' W 117°51'612.9
2017-Apr-22 00:31N 32°26' W 117°51'612.7
2017-Apr-22 00:01N 32°20' W 117°51'612.5
2017-Apr-21 23:30N 32°14' W 117°51'612.6
2017-Apr-21 23:01N 32°07' W 117°51'5303.2
2017-Apr-21 23:00N 32°12' W 117°48'1123.3 270 / 151014.710.8 16.014.317.0
2017-Apr-21 22:30N 32°01' W 117°51'612.7
2017-Apr-21 22:01N 31°55' W 117°51'612.7
2017-Apr-21 21:31N 31°48' W 117°51'612.8
2017-Apr-21 21:01N 31°42' W 117°51'612.6
2017-Apr-21 20:31N 31°36' W 117°51'612.5
2017-Apr-21 20:01N 31°29' W 117°51'612.5
2017-Apr-21 19:30N 31°23' W 117°51'612.5
2017-Apr-21 19:01N 31°17' W 117°51'5318.5
2017-Apr-21 19:00N 31°12' W 117°48'3 5.6 280 / 201014.710.8 16.014.317.0
2017-Apr-21 18:31N 31°11' W 117°51'612.6
2017-Apr-21 18:00N 31°04' W 117°51'612.8
2017-Apr-21 17:30N 30°58' W 117°50'612.0
2017-Apr-21 17:01N 30°56' W 117°43'612.6
2017-Apr-21 16:30N 30°56' W 117°36'612.6
2017-Apr-21 16:01N 30°56' W 117°28'612.7
2017-Apr-21 15:30N 30°56' W 117°21'611.8
2017-Apr-21 15:00N 30°57' W 117°14'611.8
2017-Apr-21 14:29N 31°03' W 117°12'3112.4
2017-Apr-21 11:58N 31°34' W 117°12'612.0
2017-Apr-21 11:31N 31°39' W 117°12'612.0
2017-Apr-21 11:01N 31°45' W 117°12'612.1
2017-Apr-21 10:31N 31°51' W 117°12'611.8
2017-Apr-21 10:00N 31°57' W 117°16'612.0
2017-Apr-21 09:31N 32°02' W 117°20'611.9
2017-Apr-21 09:00N 32°07' W 117°24'612.2
2017-Apr-21 08:31N 32°12' W 117°27'612.4
2017-Apr-21 08:00N 32°17' W 117°31'612.3
2017-Apr-21 07:31N 32°22' W 117°35'612.5
2017-Apr-21 07:00N 32°28' W 117°39'612.4
2017-Apr-21 06:30N 32°33' W 117°42'612.5
2017-Apr-21 06:01N 32°38' W 117°46'612.5
2017-Apr-21 05:31N 32°44' W 117°49'612.4
2017-Apr-21 05:01N 32°50' W 117°52'612.7
2017-Apr-21 04:31N 32°56' W 117°55'612.7
2017-Apr-21 04:00N 33°02' W 117°58'612.7
2017-Apr-21 03:31N 33°07' W 118°01'713.0
2017-Apr-21 03:00N 33°13' W 118°04'612.6
2017-Apr-21 02:30N 33°19' W 118°07'612.6
2017-Apr-21 02:00N 33°25' W 118°09'613.0
2017-Apr-21 01:30N 33°31' W 118°12'612.5
2017-Apr-21 01:01N 33°37' W 118°14'510.4
2017-Apr-21 00:31N 33°42' W 118°15'3 5.5
2017-Apr-21 00:01N 33°45' W 118°16'0 0.4
2017-Apr-20 23:30N 33°45' W 118°17'0 0.0
2017-Apr-20 23:00N 33°45' W 118°17'0 0.0
2017-Apr-20 22:29N 33°45' W 118°17'0 0.0
2017-Apr-20 21:56N 33°45' W 118°17'0 0.0
2017-Apr-20 21:29N 33°45' W 118°17'0 0.0
2017-Apr-20 20:59N 33°45' W 118°17'0 0.0
2017-Apr-20 20:25N 33°45' W 118°17'0 0.0
2017-Apr-20 19:55N 33°45' W 118°17'0 0.0
2017-Apr-20 19:13N 33°45' W 118°17'0 0.0
2017-Apr-20 18:25N 33°45' W 118°17'0 0.0
2017-Apr-20 18:00N 33°45' W 118°17'0 0.0
2017-Apr-20 17:30N 33°45' W 118°17'0 0.0
2017-Apr-20 16:18N 33°45' W 118°17'0 0.0
2017-Apr-20 16:00N 33°45' W 118°17'0 0.0
2017-Apr-20 15:17N 33°45' W 118°17'0 0.0
2017-Apr-20 14:59N 33°45' W 118°17'0 0.0
2017-Apr-20 13:31N 33°45' W 118°17'0 0.5
2017-Apr-20 13:25N 33°45' W 118°17'2 3.4
2017-Apr-20 12:58N 33°43' W 118°16'4 8.3
2017-Apr-20 12:30N 33°41' W 118°13'510.6
2017-Apr-20 12:01N 33°36' W 118°10'713.5
2017-Apr-20 11:30N 33°30' W 118°07'714.8
2017-Apr-20 11:00N 33°23' W 118°04'816.1
2017-Apr-20 10:31N 33°15' W 118°01'714.8
2017-Apr-20 10:00N 33°08' W 117°58'816.4
2017-Apr-20 09:30N 33°01' W 117°54'918.1
2017-Apr-20 09:00N 32°52' W 117°51'1019.1
2017-Apr-20 08:30N 32°43' W 117°47'918.8
2017-Apr-20 08:00N 32°34' W 117°43'918.9
2017-Apr-20 07:31N 32°25' W 117°39'918.0
2017-Apr-20 07:01N 32°17' W 117°35'13785.3
2017-Apr-20 07:00N 32°30' W 117°36'2244.8 280 / 201017.7 5.4 16.010.315.0
2017-Apr-20 06:30N 32°09' W 117°32'918.2
2017-Apr-20 06:00N 32°00' W 117°28'1019.1
2017-Apr-20 05:31N 31°51' W 117°24'918.7
2017-Apr-20 05:00N 31°42' W 117°20'2019.3
2017-Apr-20 04:00N 31°24' W 117°12'717.8 310 / 241016.710.8 16.014.317.0
2017-Apr-20 03:36N 31°18' W 117°09'219.7
2017-Apr-20 03:31N 31°16' W 117°08'2319.6
2017-Apr-20 02:20N 30°54' W 116°59'619.4
2017-Apr-20 02:00N 30°48' W 116°56'1019.5
2017-Apr-20 01:30N 30°39' W 116°52'5 9.2
2017-Apr-20 01:00N 30°36' W 116°48'4322.0 290 / 391016.310.8 16.514.817.0
2017-Apr-19 23:02N 29°55' W 116°33'419.3
2017-Apr-19 22:48N 29°51' W 116°31'619.7
2017-Apr-19 22:30N 29°45' W 116°28'1811.8
2017-Apr-19 21:00N 29°30' W 116°18'4727.5 330 / 301018.7 5.4 16.014.317.0
2017-Apr-19 19:16N 28°45' W 116°02'12620.1
2017-Apr-19 13:00N 27°00' W 114°42'24220.2 300 / 351012.910.8 19.515.318.0
2017-Apr-19 01:00N 24°00' W 111°42'4120.4 270 / 261011.410.8 18.016.318.0
2017-Apr-18 23:00N 23°36' W 111°06'8612.3 260 / 191013.910.8 20.020.019.0
2017-Apr-18 16:00N 22°48' W 109°48'0 0.0 290 / 81012.610.8 29.011.921.0
2017-Apr-18 12:00N 22°48' W 109°48'67 2.9 300 / 61012.910.8 22.017.221.0
2017-Apr-17 13:00N 23°00' W 111°00'12220.3 330 / 151013.510.8 17.015.319.0
2017-Apr-17 07:00N 24°24' W 112°36'11419.1 350 / 131015.710.8 16.016.015.0
2017-Apr-17 01:00N 25°54' W 113°54'4816.1 300 / 151016.010.8 17.017.015.0
2017-Apr-16 22:00N 26°30' W 114°30'21126.4 290 / 201015.710.8 16.014.317.0
2017-Apr-16 14:00N 29°00' W 117°18'3558889.5 360 / 71015.7 5.4 15.510.814.0
2017-Apr-16 10:00S 30°18' W 116°48'36673871.0 340 / 101018.710.8 15.013.217.0
2017-Apr-16 09:03N 30°49' W 117°03'121.9
2017-Apr-16 09:00N 30°49' W 117°03'1122.1
2017-Apr-16 08:30N 30°60' W 117°08'1121.9
2017-Apr-16 07:59N 31°11' W 117°12'1122.0
2017-Apr-16 07:31N 31°21' W 117°16'1122.0
2017-Apr-16 07:00N 31°31' W 117°21'1121.9
2017-Apr-16 06:31N 31°41' W 117°25'1121.8
2017-Apr-16 06:00N 31°51' W 117°29'1237478.5
2017-Apr-16 06:00N 33°54' W 117°30'112232.1 290 / 91016.710.8 14.811.515.0
2017-Apr-16 05:30N 32°02' W 117°34'1121.1
2017-Apr-16 05:00N 32°12' W 117°38'1020.6
2017-Apr-16 04:31N 32°21' W 117°42'1020.6
2017-Apr-16 04:00N 32°31' W 117°46'1121.4
2017-Apr-16 03:30N 32°41' W 117°50'1121.8
2017-Apr-16 03:01N 32°51' W 117°55'1121.7
2017-Apr-16 02:31N 33°02' W 117°59'1122.1
2017-Apr-16 02:00N 33°12' W 118°03'14881.1
2017-Apr-16 02:00N 33°00' W 117°54'2550.8 280 / 21016.710.8 15.011.315.0
2017-Apr-16 01:31N 33°22' W 118°08'815.1
2017-Apr-16 01:00N 33°29' W 118°11'714.4
2017-Apr-16 00:30N 33°36' W 118°14'611.6
2017-Apr-16 00:00N 33°41' W 118°15'3 6.9
2017-Apr-15 23:30N 33°45' W 118°17'0 0.7
2017-Apr-15 22:57N 33°45' W 118°17'0 0.0
2017-Apr-15 22:27N 33°45' W 118°17'0 0.0
2017-Apr-15 22:00N 33°45' W 118°17'0 0.0
2017-Apr-15 21:30N 33°45' W 118°17'0 0.0
2017-Apr-15 20:56N 33°45' W 118°17'0 0.0
2017-Apr-15 20:26N 33°45' W 118°17'0 0.0
2017-Apr-15 19:50N 33°45' W 118°17'0 0.0
2017-Apr-15 19:26N 33°45' W 118°17'0 0.0
2017-Apr-15 18:56N 33°45' W 118°17'0 0.0
2017-Apr-15 18:28N 33°45' W 118°17'0 0.0
2017-Apr-15 17:13N 33°45' W 118°17'0 0.0
2017-Apr-15 16:49N 33°45' W 118°17'0 0.0
2017-Apr-15 16:24N 33°45' W 118°17'0 0.0
2017-Apr-15 15:54N 33°45' W 118°17'0 0.0
2017-Apr-15 15:30N 33°45' W 118°17'0 0.0
2017-Apr-15 15:00N 33°45' W 118°17'0 0.0
2017-Apr-15 14:30N 33°45' W 118°17'0 0.1
2017-Apr-15 13:30N 33°45' W 118°17'1 2.9
2017-Apr-15 13:00N 33°44' W 118°16'4 7.9
2017-Apr-15 12:30N 33°41' W 118°13'611.1
2017-Apr-15 12:01N 33°36' W 118°10'713.8
2017-Apr-15 11:30N 33°29' W 118°07'917.8
2017-Apr-15 11:00N 33°21' W 118°03'1122.7
2017-Apr-15 10:30N 33°10' W 117°59'1122.4
2017-Apr-15 10:00N 32°60' W 117°54'1122.1
2017-Apr-15 09:30N 32°49' W 117°50'1122.2
2017-Apr-15 09:00N 32°39' W 117°45'1121.4
2017-Apr-15 08:30N 32°29' W 117°40'1121.5
2017-Apr-15 08:00N 32°19' W 117°36'5330.8
2017-Apr-15 08:00N 32°24' W 117°36'1632.2 280 / 111018.710.8 15.011.315.0
2017-Apr-15 07:31N 32°09' W 117°32'1020.8
2017-Apr-15 07:00N 31°59' W 117°27'3921.6
2017-Apr-15 05:12N 31°23' W 117°11'921.1
2017-Apr-15 04:47N 31°14' W 117°08'7319.4
2017-Apr-15 01:00N 30°06' W 116°36'2120.8 290 / 301013.310.8 15.510.814.0
2017-Apr-15 00:00N 29°48' W 116°24'   290 / 351014.910.8 16.010.315.0
Track history (hours):
 
Tides and Currents Weather Stations Pressure Air Temp Water Temp Dewpoint Dewpoint Depression Visibility Wind Speed Wind Dir Waves Ship Positions

Ruby Princess

Last reported at 2017-Apr-24 03:30 UTC. Time now 2017-Apr-24 03:29 UTC.
Position N 32°06' W 117°17'.

Length 289 m; draft 8.5 m.

Type: Ship. MMSI: 310567000.

Date/timePositionNaut miles runAvg speedWind from/ knotsBaromVisibWave heightAir tempDewpointWater temp
2017-Apr-24 03:30N 32°06' W 117°17'612.7
2017-Apr-24 03:00N 32°02' W 117°10'18 1.3
2017-Apr-23 12:47N 31°54' W 116°52'412.0
2017-Apr-23 12:27N 31°56' W 116°56'817.2
2017-Apr-23 12:00N 32°00' W 117°03'917.1
2017-Apr-23 11:30N 32°04' W 117°12'816.8
2017-Apr-23 11:00N 32°10' W 117°20'816.8
2017-Apr-23 10:30N 32°15' W 117°27'1019.3
2017-Apr-23 10:00N 32°23' W 117°35'1019.5
2017-Apr-23 09:30N 32°30' W 117°42'1019.5
2017-Apr-23 09:00N 32°38' W 117°49'1019.1
2017-Apr-23 08:30N 32°45' W 117°56'1019.0
2017-Apr-23 08:00N 32°52' W 118°03'1019.4
2017-Apr-23 07:30N 32°60' W 118°11'1019.4
2017-Apr-23 07:00N 33°07' W 118°19'1019.5
2017-Apr-23 06:30N 33°13' W 118°28'1019.2
2017-Apr-23 06:00N 33°19' W 118°37'1019.3
2017-Apr-23 05:30N 33°26' W 118°45'1019.5
2017-Apr-23 05:00N 33°34' W 118°51'1019.3
2017-Apr-23 04:30N 33°42' W 118°58'1019.3
2017-Apr-23 04:00N 33°50' W 119°04'1019.9
2017-Apr-23 03:30N 33°58' W 119°11'918.5
2017-Apr-23 03:00N 34°03' W 119°21'1019.4
2017-Apr-23 02:30N 34°06' W 119°32'917.8
2017-Apr-23 02:00N 34°11' W 119°41'181113.0
2017-Apr-23 02:00N 34°00' W 119°24'2448.7 270 / 301013.710.8 15.011.313.1
2017-Apr-23 01:30N 34°19' W 119°41'5 9.4
2017-Apr-23 01:00N 34°24' W 119°41'0 0.3
2017-Apr-23 00:29N 34°24' W 119°41'0 0.0
2017-Apr-22 23:56N 34°24' W 119°41'0 0.0
2017-Apr-22 23:20N 34°24' W 119°41'0 0.0
2017-Apr-22 22:58N 34°24' W 119°41'0 0.0
2017-Apr-22 22:28N 34°24' W 119°41'0 0.0
2017-Apr-22 21:52N 34°24' W 119°41'0 0.0
2017-Apr-22 21:28N 34°24' W 119°41'0 0.1
2017-Apr-22 20:51N 34°24' W 119°41'0 0.0
2017-Apr-22 20:30N 34°24' W 119°41'0 0.1
2017-Apr-22 19:57N 34°24' W 119°41'0 0.1
2017-Apr-22 19:27N 34°24' W 119°41'0 0.1
2017-Apr-22 18:48N 34°24' W 119°41'0 0.0
2017-Apr-22 18:26N 34°24' W 119°41'0 0.0
2017-Apr-22 17:50N 34°24' W 119°41'0 0.0
2017-Apr-22 17:26N 34°24' W 119°41'0 0.0
2017-Apr-22 16:55N 34°24' W 119°41'0 0.0
2017-Apr-22 16:30N 34°24' W 119°41'0 0.0
2017-Apr-22 16:00N 34°24' W 119°41'0 0.0
2017-Apr-22 15:30N 34°24' W 119°41'0 0.0
2017-Apr-22 15:00N 34°24' W 119°41'0 0.0
2017-Apr-22 14:30N 34°24' W 119°41'1 0.7
2017-Apr-22 13:31N 34°23' W 119°41'5 9.8
2017-Apr-22 13:00N 34°18' W 119°41'612.4
2017-Apr-22 12:31N 34°12' W 119°40'611.5
2017-Apr-22 12:00N 34°09' W 119°35'612.4
2017-Apr-22 11:31N 34°07' W 119°27'612.6
2017-Apr-22 11:01N 34°06' W 119°20'712.5
2017-Apr-22 10:28N 34°03' W 119°12'612.4
2017-Apr-22 10:00N 34°00' W 119°07'612.2
2017-Apr-22 09:30N 33°57' W 119°00'611.1
2017-Apr-22 09:00N 33°53' W 118°56'612.1
2017-Apr-22 08:31N 33°47' W 118°56'612.5
2017-Apr-22 08:01N 33°41' W 118°53'612.6
2017-Apr-22 07:31N 33°35' W 118°50'612.2
2017-Apr-22 07:00N 33°29' W 118°49'1158.0
2017-Apr-22 07:00N 33°30' W 118°48'713.1 230 / 71011.710.8 17.0 9.415.0
2017-Apr-22 06:29N 33°23' W 118°47'612.3
2017-Apr-22 06:00N 33°20' W 118°41'612.4
2017-Apr-22 05:30N 33°16' W 118°35'713.0
2017-Apr-22 05:00N 33°12' W 118°29'612.8
2017-Apr-22 04:31N 33°08' W 118°23'612.8
2017-Apr-22 04:00N 33°04' W 118°17'612.8
2017-Apr-22 03:30N 32°60' W 118°12'612.8
2017-Apr-22 03:00N 32°55' W 118°07'613.0
2017-Apr-22 02:31N 32°49' W 118°03'713.1
2017-Apr-22 02:01N 32°44' W 117°59'612.8
2017-Apr-22 01:30N 32°38' W 117°55'612.6
2017-Apr-22 01:01N 32°33' W 117°51'612.9
2017-Apr-22 00:31N 32°26' W 117°51'612.7
2017-Apr-22 00:01N 32°20' W 117°51'612.5
2017-Apr-21 23:30N 32°14' W 117°51'612.6
2017-Apr-21 23:01N 32°07' W 117°51'5303.2
2017-Apr-21 23:00N 32°12' W 117°48'1123.3 270 / 151014.710.8 16.014.317.0
2017-Apr-21 22:30N 32°01' W 117°51'612.7
2017-Apr-21 22:01N 31°55' W 117°51'612.7
2017-Apr-21 21:31N 31°48' W 117°51'612.8
2017-Apr-21 21:01N 31°42' W 117°51'612.6
2017-Apr-21 20:31N 31°36' W 117°51'612.5
2017-Apr-21 20:01N 31°29' W 117°51'612.5
2017-Apr-21 19:30N 31°23' W 117°51'612.5
2017-Apr-21 19:01N 31°17' W 117°51'5318.5
2017-Apr-21 19:00N 31°12' W 117°48'3 5.6 280 / 201014.710.8 16.014.317.0
2017-Apr-21 18:31N 31°11' W 117°51'612.6
2017-Apr-21 18:00N 31°04' W 117°51'612.8
2017-Apr-21 17:30N 30°58' W 117°50'612.0
2017-Apr-21 17:01N 30°56' W 117°43'612.6
2017-Apr-21 16:30N 30°56' W 117°36'612.6
2017-Apr-21 16:01N 30°56' W 117°28'612.7
2017-Apr-21 15:30N 30°56' W 117°21'611.8
2017-Apr-21 15:00N 30°57' W 117°14'611.8
2017-Apr-21 14:29N 31°03' W 117°12'3112.4
2017-Apr-21 11:58N 31°34' W 117°12'612.0
2017-Apr-21 11:31N 31°39' W 117°12'612.0
2017-Apr-21 11:01N 31°45' W 117°12'612.1
2017-Apr-21 10:31N 31°51' W 117°12'611.8
2017-Apr-21 10:00N 31°57' W 117°16'612.0
2017-Apr-21 09:31N 32°02' W 117°20'611.9
2017-Apr-21 09:00N 32°07' W 117°24'612.2
2017-Apr-21 08:31N 32°12' W 117°27'612.4
2017-Apr-21 08:00N 32°17' W 117°31'612.3
2017-Apr-21 07:31N 32°22' W 117°35'612.5
2017-Apr-21 07:00N 32°28' W 117°39'612.4
2017-Apr-21 06:30N 32°33' W 117°42'612.5
2017-Apr-21 06:01N 32°38' W 117°46'612.5
2017-Apr-21 05:31N 32°44' W 117°49'612.4
2017-Apr-21 05:01N 32°50' W 117°52'612.7
2017-Apr-21 04:31N 32°56' W 117°55'612.7
2017-Apr-21 04:00N 33°02' W 117°58'612.7
2017-Apr-21 03:31N 33°07' W 118°01'713.0
2017-Apr-21 03:00N 33°13' W 118°04'612.6
2017-Apr-21 02:30N 33°19' W 118°07'612.6
2017-Apr-21 02:00N 33°25' W 118°09'613.0
2017-Apr-21 01:30N 33°31' W 118°12'612.5
2017-Apr-21 01:01N 33°37' W 118°14'510.4
2017-Apr-21 00:31N 33°42' W 118°15'3 5.5
2017-Apr-21 00:01N 33°45' W 118°16'0 0.4
2017-Apr-20 23:30N 33°45' W 118°17'0 0.0
2017-Apr-20 23:00N 33°45' W 118°17'0 0.0
2017-Apr-20 22:29N 33°45' W 118°17'0 0.0
2017-Apr-20 21:56N 33°45' W 118°17'0 0.0
2017-Apr-20 21:29N 33°45' W 118°17'0 0.0
2017-Apr-20 20:59N 33°45' W 118°17'0 0.0
2017-Apr-20 20:25N 33°45' W 118°17'0 0.0
2017-Apr-20 19:55N 33°45' W 118°17'0 0.0
2017-Apr-20 19:13N 33°45' W 118°17'0 0.0
2017-Apr-20 18:25N 33°45' W 118°17'0 0.0
2017-Apr-20 18:00N 33°45' W 118°17'0 0.0
2017-Apr-20 17:30N 33°45' W 118°17'0 0.0
2017-Apr-20 16:18N 33°45' W 118°17'0 0.0
2017-Apr-20 16:00N 33°45' W 118°17'0 0.0
2017-Apr-20 15:17N 33°45' W 118°17'0 0.0
2017-Apr-20 14:59N 33°45' W 118°17'0 0.0
2017-Apr-20 13:31N 33°45' W 118°17'0 0.5
2017-Apr-20 13:25N 33°45' W 118°17'2 3.4
2017-Apr-20 12:58N 33°43' W 118°16'4 8.3
2017-Apr-20 12:30N 33°41' W 118°13'510.6
2017-Apr-20 12:01N 33°36' W 118°10'713.5
2017-Apr-20 11:30N 33°30' W 118°07'714.8
2017-Apr-20 11:00N 33°23' W 118°04'816.1
2017-Apr-20 10:31N 33°15' W 118°01'714.8
2017-Apr-20 10:00N 33°08' W 117°58'816.4
2017-Apr-20 09:30N 33°01' W 117°54'918.1
2017-Apr-20 09:00N 32°52' W 117°51'1019.1
2017-Apr-20 08:30N 32°43' W 117°47'918.8
2017-Apr-20 08:00N 32°34' W 117°43'918.9
2017-Apr-20 07:31N 32°25' W 117°39'918.0
2017-Apr-20 07:01N 32°17' W 117°35'13785.3
2017-Apr-20 07:00N 32°30' W 117°36'2244.8 280 / 201017.7 5.4 16.010.315.0
2017-Apr-20 06:30N 32°09' W 117°32'918.2
2017-Apr-20 06:00N 32°00' W 117°28'1019.1
2017-Apr-20 05:31N 31°51' W 117°24'918.7
2017-Apr-20 05:00N 31°42' W 117°20'2019.3
2017-Apr-20 04:00N 31°24' W 117°12'717.8 310 / 241016.710.8 16.014.317.0
2017-Apr-20 03:36N 31°18' W 117°09'219.7
2017-Apr-20 03:31N 31°16' W 117°08'2319.6
2017-Apr-20 02:20N 30°54' W 116°59'619.4
2017-Apr-20 02:00N 30°48' W 116°56'1019.5
2017-Apr-20 01:30N 30°39' W 116°52'5 9.2
2017-Apr-20 01:00N 30°36' W 116°48'4322.0 290 / 391016.310.8 16.514.817.0
2017-Apr-19 23:02N 29°55' W 116°33'419.3
2017-Apr-19 22:48N 29°51' W 116°31'619.7
2017-Apr-19 22:30N 29°45' W 116°28'1811.8
2017-Apr-19 21:00N 29°30' W 116°18'4727.5 330 / 301018.7 5.4 16.014.317.0
2017-Apr-19 19:16N 28°45' W 116°02'12620.1
2017-Apr-19 13:00N 27°00' W 114°42'24220.2 300 / 351012.910.8 19.515.318.0
2017-Apr-19 01:00N 24°00' W 111°42'4120.4 270 / 261011.410.8 18.016.318.0
2017-Apr-18 23:00N 23°36' W 111°06'8612.3 260 / 191013.910.8 20.020.019.0
2017-Apr-18 16:00N 22°48' W 109°48'0 0.0 290 / 81012.610.8 29.011.921.0
2017-Apr-18 12:00N 22°48' W 109°48'67 2.9 300 / 61012.910.8 22.017.221.0
2017-Apr-17 13:00N 23°00' W 111°00'12220.3 330 / 151013.510.8 17.015.319.0
2017-Apr-17 07:00N 24°24' W 112°36'11419.1 350 / 131015.710.8 16.016.015.0
2017-Apr-17 01:00N 25°54' W 113°54'4816.1 300 / 151016.010.8 17.017.015.0
2017-Apr-16 22:00N 26°30' W 114°30'21126.4 290 / 201015.710.8 16.014.317.0
2017-Apr-16 14:00N 29°00' W 117°18'3558889.5 360 / 71015.7 5.4 15.510.814.0
2017-Apr-16 10:00S 30°18' W 116°48'36673871.0 340 / 101018.710.8 15.013.217.0
2017-Apr-16 09:03N 30°49' W 117°03'121.9
2017-Apr-16 09:00N 30°49' W 117°03'1122.1
2017-Apr-16 08:30N 30°60' W 117°08'1121.9
2017-Apr-16 07:59N 31°11' W 117°12'1122.0
2017-Apr-16 07:31N 31°21' W 117°16'1122.0
2017-Apr-16 07:00N 31°31' W 117°21'1121.9
2017-Apr-16 06:31N 31°41' W 117°25'1121.8
2017-Apr-16 06:00N 31°51' W 117°29'1237478.5
2017-Apr-16 06:00N 33°54' W 117°30'112232.1 290 / 91016.710.8 14.811.515.0
2017-Apr-16 05:30N 32°02' W 117°34'1121.1
2017-Apr-16 05:00N 32°12' W 117°38'1020.6
2017-Apr-16 04:31N 32°21' W 117°42'1020.6
2017-Apr-16 04:00N 32°31' W 117°46'1121.4
2017-Apr-16 03:30N 32°41' W 117°50'1121.8
2017-Apr-16 03:01N 32°51' W 117°55'1121.7
2017-Apr-16 02:31N 33°02' W 117°59'1122.1
2017-Apr-16 02:00N 33°12' W 118°03'14881.1
2017-Apr-16 02:00N 33°00' W 117°54'2550.8 280 / 21016.710.8 15.011.315.0
2017-Apr-16 01:31N 33°22' W 118°08'815.1
2017-Apr-16 01:00N 33°29' W 118°11'714.4
2017-Apr-16 00:30N 33°36' W 118°14'611.6
2017-Apr-16 00:00N 33°41' W 118°15'3 6.9
2017-Apr-15 23:30N 33°45' W 118°17'0 0.7
2017-Apr-15 22:57N 33°45' W 118°17'0 0.0
2017-Apr-15 22:27N 33°45' W 118°17'0 0.0
2017-Apr-15 22:00N 33°45' W 118°17'0 0.0
2017-Apr-15 21:30N 33°45' W 118°17'0 0.0
2017-Apr-15 20:56N 33°45' W 118°17'0 0.0
2017-Apr-15 20:26N 33°45' W 118°17'0 0.0
2017-Apr-15 19:50N 33°45' W 118°17'0 0.0
2017-Apr-15 19:26N 33°45' W 118°17'0 0.0
2017-Apr-15 18:56N 33°45' W 118°17'0 0.0
2017-Apr-15 18:28N 33°45' W 118°17'0 0.0
2017-Apr-15 17:13N 33°45' W 118°17'0 0.0
2017-Apr-15 16:49N 33°45' W 118°17'0 0.0
2017-Apr-15 16:24N 33°45' W 118°17'0 0.0
2017-Apr-15 15:54N 33°45' W 118°17'0 0.0
2017-Apr-15 15:30N 33°45' W 118°17'0 0.0
2017-Apr-15 15:00N 33°45' W 118°17'0 0.0
2017-Apr-15 14:30N 33°45' W 118°17'0 0.1
2017-Apr-15 13:30N 33°45' W 118°17'1 2.9
2017-Apr-15 13:00N 33°44' W 118°16'4 7.9
2017-Apr-15 12:30N 33°41' W 118°13'611.1
2017-Apr-15 12:01N 33°36' W 118°10'713.8
2017-Apr-15 11:30N 33°29' W 118°07'917.8
2017-Apr-15 11:00N 33°21' W 118°03'1122.7
2017-Apr-15 10:30N 33°10' W 117°59'1122.4
2017-Apr-15 10:00N 32°60' W 117°54'1122.1
2017-Apr-15 09:30N 32°49' W 117°50'1122.2
2017-Apr-15 09:00N 32°39' W 117°45'1121.4
2017-Apr-15 08:30N 32°29' W 117°40'1121.5
2017-Apr-15 08:00N 32°19' W 117°36'5330.8
2017-Apr-15 08:00N 32°24' W 117°36'1632.2 280 / 111018.710.8 15.011.315.0
2017-Apr-15 07:31N 32°09' W 117°32'1020.8
2017-Apr-15 07:00N 31°59' W 117°27'3921.6
2017-Apr-15 05:12N 31°23' W 117°11'921.1
2017-Apr-15 04:47N 31°14' W 117°08'7319.4
2017-Apr-15 01:00N 30°06' W 116°36'2120.8 290 / 301013.310.8 15.510.814.0
2017-Apr-15 00:00N 29°48' W 116°24'   290 / 351014.910.8 16.010.315.0

Dump ship's entire track history